Lytle, Ohio
Current Conditions -  °F | °C
As of 1:53 PM on Monday 20 Oct 2014 (Local Time) from KMGY Reporting Station
Overcast Overcast  
Wind Chill: 60°   Ceiling: 6500
Heat Index: 60°   Visibility: 10mi
Dew Point: 47°   Wind: 10mph
Humidity: 62%   Direction: 210°SSW
Pressure: 29.87"   Gusts: 24mph
Location:  39.5416°N, 84.0704°W
Report Text: KMGY 201753Z AUTO 21009G21KT 10SM BKN065 OVC090 16/08 A2987 RMK AO2 SLP114 T01560083 10156 20083 58025
Loading
Personal Weather Stations






























Interactive Weather Map
Tropical Storm Tracking
New forecast layout! Learn more

10-Day Weather Forecast

Advertisements
Track Severe Weather on mobile